Time;durP1;ratioP1;P1;durP2;ratioP2;P2;SDS_P1;SDS_P2;PMS_P1;PMS_P2;Temp;Humidity;BMP_temperature;BMP_pressure;BME280_temperature;BME280_humidity;BME280_pressure;Samples;Min_cycle;Max_cycle;Signal;HPM_P1;HPM_P2
2021/08/07 00:01:18;;;;;;;90.53;83.18;;;;;;;17.61;100.00;100298.38;5035154;28;20049;-78
2021/08/07 00:03:47;;;;;;;83.05;75.97;;;;;;;18.15;100.00;100295.31;5035462;28;20046;-79
2021/08/07 00:06:13;;;;;;;69.57;63.65;;;;;;;18.38;100.00;100293.19;5035020;28;20053;-79
2021/08/07 00:08:40;;;;;;;70.85;64.65;;;;;;;18.14;100.00;100299.06;5033165;28;20544;-77
2021/08/07 00:11:07;;;;;;;92.35;84.88;;;;;;;17.44;100.00;100298.56;5035510;28;20065;-77
2021/08/07 00:13:34;;;;;;;84.25;77.25;;;;;;;17.92;100.00;100303.88;5035023;28;20049;-79
2021/08/07 00:16:01;;;;;;;68.07;62.17;;;;;;;18.04;100.00;100299.06;5034976;28;20057;-78
2021/08/07 00:18:28;;;;;;;66.30;60.33;;;;;;;18.02;100.00;100295.81;5035035;28;20045;-77
2021/08/07 00:20:56;;;;;;;84.75;78.07;;;;;;;18.05;100.00;100300.66;5035673;28;20051;-77
2021/08/07 00:23:23;;;;;;;68.50;62.17;;;;;;;17.85;100.00;100307.63;5034802;28;20441;-79
2021/08/07 00:25:50;;;;;;;74.40;67.70;;;;;;;17.82;100.00;100310.81;5035090;28;20061;-79
2021/08/07 00:28:16;;;;;;;68.07;61.85;;;;;;;17.89;100.00;100317.84;5034825;28;20053;-76
2021/08/07 00:30:43;;;;;;;69.47;63.00;;;;;;;18.00;100.00;100308.72;5034736;28;20050;-80
2021/08/07 00:33:10;;;;;;;75.18;68.88;;;;;;;17.90;100.00;100317.56;5034625;28;20126;-78
2021/08/07 00:35:37;;;;;;;68.20;62.20;;;;;;;17.83;100.00;100328.56;5035632;28;20128;-78
2021/08/07 00:38:05;;;;;;;60.33;55.05;;;;;;;17.87;100.00;100319.97;5034504;28;20464;-78
2021/08/07 00:40:32;;;;;;;74.70;68.68;;;;;;;17.48;100.00;100321.09;5030192;28;20042;-79
2021/08/07 00:42:58;;;;;;;69.53;63.58;;;;;;;17.07;100.00;100320.09;5034736;28;20488;-78
2021/08/07 00:45:25;;;;;;;69.78;63.72;;;;;;;17.61;100.00;100317.97;5034564;28;20050;-78
2021/08/07 00:47:52;;;;;;;63.65;57.88;;;;;;;17.94;100.00;100331.25;5034183;28;20056;-78
2021/08/07 00:50:19;;;;;;;55.95;50.50;;;;;;;17.75;100.00;100334.38;5035399;28;20119;-78
2021/08/07 00:52:46;;;;;;;67.97;62.13;;;;;;;17.39;100.00;100336.09;5034482;28;20049;-78
2021/08/07 00:55:14;;;;;;;68.95;62.63;;;;;;;16.97;100.00;100330.72;5033881;28;20128;-77
2021/08/07 00:57:40;;;;;;;71.63;65.30;;;;;;;17.25;100.00;100335.75;5034296;28;20127;-79
2021/08/07 01:00:08;;;;;;;68.72;62.83;;;;;;;17.49;100.00;100338.03;5033998;28;20052;-78
2021/08/07 01:02:35;;;;;;;65.50;60.10;;;;;;;17.82;100.00;100345.75;5033918;28;20107;-77
2021/08/07 01:05:06;;;;;;;60.25;55.05;;;;;;;17.86;100.00;100337.97;5034684;28;20453;-77
2021/08/07 01:07:42;;;;;;;60.38;55.03;;;;;;;17.37;100.00;100333.69;5034139;28;20049;-78
2021/08/07 01:10:19;;;;;;;51.80;47.13;;;;;;;17.58;100.00;100348.03;5034053;28;20163;-80
2021/08/07 01:12:52;;;;;;;54.95;49.97;;;;;;;17.75;100.00;100341.66;5033638;28;20053;-77
2021/08/07 01:15:23;;;;;;;60.15;54.97;;;;;;;17.34;100.00;100346.81;5034027;28;20056;-78
2021/08/07 01:17:54;;;;;;;55.20;50.30;;;;;;;17.55;100.00;100348.56;5033867;28;20072;-78
2021/08/07 01:20:26;;;;;;;53.90;49.08;;;;;;;17.40;100.00;100346.59;5034524;28;20315;-78
2021/08/07 01:23:01;;;;;;;69.38;63.55;;;;;;;17.09;100.00;100345.56;5033931;28;20050;-83
2021/08/07 01:25:40;;;;;;;58.85;53.13;;;;;;;17.47;100.00;100351.72;5033598;28;20045;-79
2021/08/07 01:28:09;;;;;;;60.78;55.55;;;;;;;17.26;100.00;100352.66;5033654;28;20045;-79
2021/08/07 01:30:37;;;;;;;59.03;53.78;;;;;;;17.38;100.00;100353.28;5033380;28;20045;-77
2021/08/07 01:33:04;;;;;;;59.08;53.67;;;;;;;17.43;100.00;100355.16;5033582;28;20060;-78
2021/08/07 01:35:33;;;;;;;52.38;47.40;;;;;;;17.34;100.00;100353.00;5034378;28;20049;-79
2021/08/07 01:37:59;;;;;;;64.82;59.22;;;;;;;16.69;100.00;100354.09;5033634;28;20052;-80
2021/08/07 01:40:26;;;;;;;61.17;55.78;;;;;;;16.91;100.00;100354.84;5033219;28;20115;-78
2021/08/07 01:42:53;;;;;;;60.95;55.35;;;;;;;17.30;100.00;100357.25;5033450;28;20049;-83
2021/08/07 01:45:21;;;;;;;66.90;60.90;;;;;;;17.44;100.00;100354.94;5034414;28;20053;-77
2021/08/07 01:47:54;;;;;;;58.22;52.92;;;;;;;17.37;100.00;100354.34;5033104;28;20122;-79
2021/08/07 01:50:29;;;;;;;63.75;58.05;;;;;;;16.76;100.00;100354.69;5033523;28;20060;-80
2021/08/07 01:53:02;;;;;;;63.78;58.05;;;;;;;16.85;100.00;100355.88;5033176;28;20049;-78
2021/08/07 01:55:30;;;;;;;;;;;;;;;16.60;100.00;100361.78;5033576;28;20111;-83
2021/08/07 01:58:10;;;;;;;61.30;55.95;;;;;;;17.03;100.00;100351.97;5032893;28;20438;-79
2021/08/07 02:01:28;;;;;;;61.78;56.05;;;;;;;16.82;100.00;100340.28;5150068;23;20021;-79
2021/08/07 02:03:58;;;;;;;63.38;57.47;;;;;;;16.64;100.00;100335.25;4981089;28;20054;-77
2021/08/07 02:06:26;;;;;;;68.03;62.13;;;;;;;16.48;100.00;100340.50;4982912;28;20054;-78
2021/08/07 02:08:54;;;;;;;67.22;61.30;;;;;;;16.71;100.00;100346.59;4982912;28;20054;-79
2021/08/07 02:11:21;;;;;;;55.38;50.53;;;;;;;16.92;100.00;100337.69;4981194;28;20062;-78
2021/08/07 02:13:49;;;;;;;61.03;55.58;;;;;;;17.15;100.00;100347.22;4983894;28;20062;-79
2021/08/07 02:16:18;;;;;;;64.05;58.65;;;;;;;16.81;100.00;100335.19;4985055;28;20050;-77
2021/08/07 02:18:46;;;;;;;61.08;55.58;;;;;;;16.72;100.00;100337.50;4983496;28;20495;-78
2021/08/07 02:21:16;;;;;;;60.50;55.08;;;;;;;16.75;100.00;100345.03;4974160;28;20051;-78
2021/08/07 02:23:47;;;;;;;66.97;60.80;;;;;;;16.51;100.00;100343.75;4981604;28;20120;-77
2021/08/07 02:26:15;;;;;;;70.00;63.70;;;;;;;16.59;100.00;100354.00;4981180;28;20078;-78
2021/08/07 02:28:42;;;;;;;63.28;57.65;;;;;;;16.11;100.00;100359.16;4983935;28;20455;-77
2021/08/07 02:31:10;;;;;;;70.13;64.07;;;;;;;16.63;100.00;100363.94;4978368;28;20101;-79
2021/08/07 02:33:38;;;;;;;65.38;59.58;;;;;;;16.25;100.00;100365.75;4987080;28;20061;-77
2021/08/07 02:36:07;;;;;;;68.10;62.00;;;;;;;16.35;100.00;100375.75;4973637;28;20523;-78
2021/08/07 02:38:36;;;;;;;76.10;69.50;;;;;;;16.35;100.00;100375.75;4983553;28;20560;-80
2021/08/07 02:41:04;;;;;;;65.13;59.15;;;;;;;16.38;100.00;100380.59;4984287;28;20051;-80
2021/08/07 02:43:32;;;;;;;64.43;58.42;;;;;;;16.17;100.00;100387.63;4983693;28;20519;-80
2021/08/07 02:45:59;;;;;;;68.53;62.33;;;;;;;16.39;100.00;100382.22;4983864;28;20050;-78
2021/08/07 02:48:27;;;;;;;81.43;74.53;;;;;;;16.15;100.00;100400.44;4982757;28;20112;-78
2021/08/07 02:50:54;;;;;;;78.13;71.40;;;;;;;15.74;100.00;100399.94;4974968;28;20113;-77
2021/08/07 02:53:22;;;;;;;68.57;62.47;;;;;;;16.16;100.00;100401.28;4980129;28;20051;-79
2021/08/07 02:55:50;;;;;;;76.93;70.38;;;;;;;16.22;100.00;100400.28;4984607;28;20050;-80
2021/08/07 02:58:17;;;;;;;60.47;54.70;;;;;;;16.30;100.00;100404.38;4983251;28;20410;-78
2021/08/07 03:00:44;;;;;;;75.68;68.93;;;;;;;16.26;100.00;100406.75;4982117;28;20046;-79
2021/08/07 03:03:11;;;;;;;78.55;71.55;;;;;;;16.19;100.00;100408.81;4995422;28;20456;-80
2021/08/07 03:05:38;;;;;;;70.45;64.45;;;;;;;16.47;100.00;100413.94;4996816;28;20078;-79
2021/08/07 03:08:05;;;;;;;81.47;74.88;;;;;;;16.32;100.00;100421.81;5003140;28;20076;-78
2021/08/07 03:10:32;;;;;;;76.35;69.50;;;;;;;16.17;100.00;100413.59;5001198;28;20111;-80
2021/08/07 03:13:02;;;;;;;70.68;64.15;;;;;;;16.11;100.00;100411.91;5001159;28;20050;-80
2021/08/07 03:15:30;;;;;;;67.53;61.38;;;;;;;15.97;100.00;100423.00;5001916;28;20088;-79
2021/08/07 03:17:56;;;;;;;67.60;61.70;;;;;;;15.95;100.00;100425.13;5001602;28;20079;-78
2021/08/07 03:20:30;;;;;;;67.85;61.95;;;;;;;15.88;100.00;100432.50;5002065;28;20058;-77
2021/08/07 03:22:58;;;;;;;65.47;59.33;;;;;;;16.13;100.00;100439.28;5000891;28;20047;-77
2021/08/07 03:25:24;;;;;;;64.43;58.65;;;;;;;16.03;100.00;100447.97;5004898;28;20133;-80
2021/08/07 03:27:51;;;;;;;63.70;57.97;;;;;;;16.19;100.00;100455.16;5007027;28;20057;-80
2021/08/07 03:30:19;;;;;;;58.60;53.30;;;;;;;16.03;100.00;100453.34;5004568;28;20062;-79
2021/08/07 03:32:46;;;;;;;74.38;68.03;;;;;;;15.91;100.00;100460.66;5004392;28;20046;-78
2021/08/07 03:35:13;;;;;;;68.05;62.28;;;;;;;15.86;100.00;100471.34;5003806;28;20050;-77
2021/08/07 03:37:40;;;;;;;65.57;59.97;;;;;;;16.12;100.00;100473.28;5003894;28;20053;-78
2021/08/07 03:40:08;;;;;;;63.65;57.95;;;;;;;15.95;100.00;100476.00;5003009;28;20200;-77
2021/08/07 03:42:34;;;;;;;65.00;59.10;;;;;;;16.00;100.00;100480.63;5005315;28;20051;-78
2021/08/07 03:45:01;;;;;;;64.90;59.03;;;;;;;16.24;100.00;100475.84;5007144;28;20064;-77
2021/08/07 03:47:29;;;;;;;68.30;62.42;;;;;;;16.08;100.00;100482.06;5001997;28;20053;-77
2021/08/07 03:49:56;;;;;;;71.43;65.45;;;;;;;16.06;100.00;100476.94;5003829;28;20054;-78
2021/08/07 03:52:23;;;;;;;60.88;55.45;;;;;;;16.36;100.00;100489.91;5000691;28;20057;-78
2021/08/07 03:54:49;;;;;;;62.22;56.25;;;;;;;16.53;100.00;100491.75;5003222;28;20055;-77
2021/08/07 03:57:16;;;;;;;62.15;56.50;;;;;;;16.46;100.00;100490.06;5005968;28;20120;-79
2021/08/07 03:59:43;;;;;;;61.72;56.20;;;;;;;16.63;100.00;100492.66;5006467;28;20135;-78
2021/08/07 04:02:10;;;;;;;68.07;62.05;;;;;;;16.56;100.00;100491.25;5005654;28;20043;-78
2021/08/07 04:04:38;;;;;;;62.65;56.90;;;;;;;16.76;100.00;100493.34;5003761;28;20121;-78
2021/08/07 04:07:04;;;;;;;60.05;54.75;;;;;;;16.75;100.00;100500.56;5000203;28;20184;-78
2021/08/07 04:09:31;;;;;;;58.15;53.20;;;;;;;16.66;100.00;100502.88;5002476;28;20449;-80
2021/08/07 04:11:58;;;;;;;61.40;55.90;;;;;;;16.52;100.00;100498.97;5006592;28;20061;-79
2021/08/07 04:14:24;;;;;;;57.08;51.90;;;;;;;16.85;100.00;100505.25;5004996;28;20111;-78
2021/08/07 04:16:51;;;;;;;56.33;50.85;;;;;;;16.97;100.00;100516.63;5004717;28;20054;-78
2021/08/07 04:19:18;;;;;;;57.80;52.30;;;;;;;17.01;100.00;100520.44;5003701;28;20057;-78
2021/08/07 04:21:46;;;;;;;65.32;59.55;;;;;;;16.89;100.00;100523.28;5009137;28;20050;-77
2021/08/07 04:24:13;;;;;;;56.25;51.05;;;;;;;16.96;100.00;100527.63;5005783;28;20112;-80
2021/08/07 04:26:39;;;;;;;61.65;55.85;;;;;;;16.98;100.00;100531.69;5005118;28;20690;-80
2021/08/07 04:29:06;;;;;;;65.57;59.90;;;;;;;16.94;100.00;100527.88;5004093;28;20104;-78
2021/08/07 04:31:33;;;;;;;63.53;57.47;;;;;;;17.25;100.00;100522.81;5003821;28;20066;-78
2021/08/07 04:34:00;;;;;;;60.65;55.13;;;;;;;17.35;100.00;100528.28;5005454;28;20108;-78
2021/08/07 04:36:27;;;;;;;62.90;57.47;;;;;;;17.45;100.00;100546.34;4997529;28;20045;-78
2021/08/07 04:38:55;;;;;;;60.38;55.08;;;;;;;17.58;100.00;100536.00;5004495;28;20129;-77
2021/08/07 04:41:21;;;;;;;55.10;50.03;;;;;;;17.62;100.00;100545.16;5006593;28;20089;-78
2021/08/07 04:43:48;;;;;;;56.10;51.08;;;;;;;17.78;100.00;100551.47;5005524;28;20062;-79
2021/08/07 04:46:15;;;;;;;52.90;48.47;;;;;;;17.87;100.00;100554.47;5005462;28;20057;-79
2021/08/07 04:48:41;;;;;;;48.85;44.40;;;;;;;17.85;100.00;100552.06;5004698;28;20486;-77
2021/08/07 04:51:08;;;;;;;47.83;43.55;;;;;;;18.16;100.00;100563.00;4994664;28;20058;-77
2021/08/07 04:53:35;;;;;;;44.95;40.67;;;;;;;18.23;100.00;100555.53;5002915;28;20045;-79
2021/08/07 04:56:03;;;;;;;43.55;39.88;;;;;;;18.31;100.00;100562.28;5001960;28;20117;-79
2021/08/07 04:58:30;;;;;;;39.33;35.50;;;;;;;18.48;100.00;100557.50;5002107;28;20474;-79
2021/08/07 05:00:57;;;;;;;39.38;35.80;;;;;;;18.75;100.00;100553.91;5003285;28;20475;-78
2021/08/07 05:03:24;;;;;;;39.88;36.58;;;;;;;18.79;100.00;100551.47;5005359;28;20442;-79
2021/08/07 05:05:50;;;;;;;41.05;37.45;;;;;;;18.84;100.00;100557.69;5004839;28;20056;-77
2021/08/07 05:08:17;;;;;;;38.88;35.20;;;;;;;18.79;100.00;100559.53;5005776;28;20056;-79
2021/08/07 05:10:44;;;;;;;40.30;36.83;;;;;;;18.95;100.00;100555.84;5004386;28;20482;-79
2021/08/07 05:13:12;;;;;;;39.10;35.78;;;;;;;19.10;100.00;100563.16;5003563;28;20054;-77
2021/08/07 05:15:39;;;;;;;35.47;32.67;;;;;;;19.26;100.00;100558.59;5001353;28;20062;-78
2021/08/07 05:18:06;;;;;;;39.58;36.38;;;;;;;19.57;100.00;100567.50;5001407;28;20050;-78
2021/08/07 05:20:33;;;;;;;37.78;34.47;;;;;;;19.49;100.00;100565.34;4999154;28;20058;-78
2021/08/07 05:23:00;;;;;;;36.08;33.20;;;;;;;19.78;100.00;100568.34;5004283;28;20050;-77
2021/08/07 05:25:27;;;;;;;38.15;35.22;;;;;;;19.76;100.00;100567.78;5002681;28;20494;-79
2021/08/07 05:27:53;;;;;;;33.08;30.73;;;;;;;20.00;100.00;100566.16;5002216;28;20482;-79
2021/08/07 05:30:22;;;;;;;30.33;28.00;;;;;;;20.18;100.00;100566.66;5000640;28;20050;-78
2021/08/07 05:32:48;;;;;;;29.50;27.48;;;;;;;20.35;100.00;100569.84;5003223;28;20479;-78
2021/08/07 05:35:15;;;;;;;28.48;26.25;;;;;;;20.34;100.00;100582.53;5000937;28;20054;-78
2021/08/07 05:37:43;;;;;;;30.35;28.13;;;;;;;20.26;100.00;100571.50;5001380;28;20112;-78
2021/08/07 05:40:12;;;;;;;31.00;29.00;;;;;;;20.50;100.00;100572.50;5002825;28;20053;-77
2021/08/07 05:42:39;;;;;;;28.73;26.73;;;;;;;20.71;100.00;100581.34;5002184;28;20057;-79
2021/08/07 05:45:07;;;;;;;31.90;29.48;;;;;;;20.89;100.00;100598.00;5004660;28;20057;-80
2021/08/07 05:47:35;;;;;;;30.33;28.42;;;;;;;20.97;100.00;100600.13;5000605;28;20054;-77
2021/08/07 05:50:02;;;;;;;29.52;27.42;;;;;;;21.52;100.00;100595.50;5001656;28;20124;-78
2021/08/07 05:52:29;;;;;;;27.15;25.40;;;;;;;21.34;100.00;100596.13;4999886;28;20128;-80
2021/08/07 05:54:57;;;;;;;28.10;26.10;;;;;;;21.62;100.00;100610.81;5002680;28;20057;-80
2021/08/07 05:57:23;;;;;;;27.27;25.67;;;;;;;21.46;100.00;100612.81;5000451;28;20133;-80
2021/08/07 05:59:50;;;;;;;28.42;26.73;;;;;;;21.45;100.00;100606.63;5004559;28;20061;-79
2021/08/07 06:02:17;;;;;;;31.77;29.48;;;;;;;21.43;100.00;100603.38;5004430;28;20049;-79
2021/08/07 06:04:45;;;;;;;28.85;27.05;;;;;;;21.35;100.00;100606.63;5001372;28;20462;-79
2021/08/07 06:07:12;;;;;;;24.70;23.00;;;;;;;21.67;100.00;100613.47;4996312;28;20136;-77
2021/08/07 06:09:39;;;;;;;28.83;26.92;;;;;;;21.77;100.00;100618.78;5001153;28;20064;-80
2021/08/07 06:12:06;;;;;;;26.95;25.27;;;;;;;22.22;100.00;100616.78;5003500;28;20042;-78
2021/08/07 06:14:33;;;;;;;24.92;23.27;;;;;;;21.46;100.00;100619.03;5003597;28;20054;-78
2021/08/07 06:16:59;;;;;;;24.77;23.08;;;;;;;21.66;100.00;100626.16;5002131;28;21485;-79
2021/08/07 06:19:26;;;;;;;24.88;23.27;;;;;;;21.45;100.00;100622.81;5002792;28;20062;-78
2021/08/07 06:21:54;;;;;;;25.27;23.65;;;;;;;21.64;100.00;100631.06;4994754;28;20128;-78
2021/08/07 06:24:21;;;;;;;24.40;22.73;;;;;;;21.93;100.00;100636.50;5004500;28;20100;-79
2021/08/07 06:26:48;;;;;;;24.65;23.15;;;;;;;21.81;100.00;100641.44;5003862;28;20116;-80
2021/08/07 06:29:15;;;;;;;25.70;23.65;;;;;;;22.12;100.00;100638.50;5002359;28;20444;-78
2021/08/07 06:31:41;;;;;;;26.05;24.10;;;;;;;22.12;100.00;100641.22;5000828;28;20446;-79
2021/08/07 06:34:08;;;;;;;26.73;24.83;;;;;;;22.01;100.00;100648.59;5004635;28;20066;-77
2021/08/07 06:36:35;;;;;;;26.27;24.33;;;;;;;22.17;100.00;100650.09;4995951;28;20050;-78
2021/08/07 06:39:03;;;;;;;26.08;24.27;;;;;;;21.99;100.00;100644.56;5002010;28;20073;-79
2021/08/07 06:41:30;;;;;;;27.35;25.40;;;;;;;22.50;100.00;100655.72;5001083;28;20053;-78
2021/08/07 06:43:57;;;;;;;27.23;25.23;;;;;;;22.34;100.00;100651.56;5002955;28;20569;-79
2021/08/07 06:46:24;;;;;;;25.50;23.70;;;;;;;22.41;100.00;100654.75;4999580;28;20108;-78
2021/08/07 06:48:50;;;;;;;26.33;24.02;;;;;;;22.50;100.00;100657.63;5004879;28;20049;-80
2021/08/07 06:51:17;;;;;;;25.40;23.60;;;;;;;22.69;100.00;100661.19;4993128;28;20046;-80
2021/08/07 06:53:46;;;;;;;25.55;23.80;;;;;;;22.63;100.00;100656.94;5005240;28;20050;-78
2021/08/07 06:56:14;;;;;;;24.15;22.45;;;;;;;22.70;100.00;100656.63;5003820;28;20065;-80
2021/08/07 06:58:41;;;;;;;25.25;23.45;;;;;;;22.68;100.00;100656.88;5005254;28;20050;-80
2021/08/07 07:01:07;;;;;;;27.33;25.27;;;;;;;22.66;100.00;100650.94;5005470;28;20050;-78
2021/08/07 07:03:34;;;;;;;26.23;24.33;;;;;;;23.07;100.00;100645.06;5004767;28;20058;-78
2021/08/07 07:06:01;;;;;;;26.13;24.42;;;;;;;23.14;100.00;100648.22;5003418;28;20054;-80
2021/08/07 07:08:27;;;;;;;26.67;24.58;;;;;;;23.44;100.00;100649.69;5005844;28;20431;-79
2021/08/07 07:10:55;;;;;;;26.20;24.20;;;;;;;23.16;100.00;100651.44;5005878;28;20454;-78
2021/08/07 07:13:23;;;;;;;25.60;23.90;;;;;;;23.45;100.00;100669.47;5006482;28;20041;-78
2021/08/07 07:15:50;;;;;;;26.33;24.38;;;;;;;23.40;100.00;100670.34;5001181;28;20136;-80
2021/08/07 07:18:16;;;;;;;24.60;22.80;;;;;;;23.72;100.00;100679.66;5007287;28;20115;-79
2021/08/07 07:20:43;;;;;;;24.30;22.50;;;;;;;23.87;100.00;100674.00;5000030;28;20109;-78
2021/08/07 07:23:12;;;;;;;23.92;22.13;;;;;;;23.90;100.00;100667.97;5001384;28;20046;-78
2021/08/07 07:25:38;;;;;;;24.85;23.10;;;;;;;23.79;100.00;100679.31;5004580;28;20050;-80
2021/08/07 07:28:05;;;;;;;24.85;23.15;;;;;;;24.26;100.00;100677.44;5009308;28;20050;-78
2021/08/07 07:30:34;;;;;;;24.98;23.08;;;;;;;24.56;100.00;100676.91;5004514;28;20046;-78
2021/08/07 07:33:00;;;;;;;24.65;23.05;;;;;;;24.18;100.00;100681.66;5004852;28;20490;-79
2021/08/07 07:35:27;;;;;;;27.10;25.17;;;;;;;24.52;100.00;100681.34;5009079;28;20050;-78
2021/08/07 07:37:54;;;;;;;24.95;23.17;;;;;;;24.94;100.00;100676.72;5007491;28;20502;-79
2021/08/07 07:40:21;;;;;;;25.10;23.30;;;;;;;24.85;100.00;100682.03;5005426;28;20055;-79
2021/08/07 07:42:48;;;;;;;25.67;24.02;;;;;;;24.85;100.00;100673.09;5004414;28;20469;-79
2021/08/07 07:45:14;;;;;;;25.00;23.00;;;;;;;24.81;100.00;100672.91;5005636;28;20481;-79
2021/08/07 07:47:42;;;;;;;26.20;24.30;;;;;;;24.47;100.00;100665.13;5002089;28;20116;-79
2021/08/07 07:50:10;;;;;;;25.45;23.23;;;;;;;24.77;100.00;100671.88;5006610;28;20119;-78
2021/08/07 07:52:37;;;;;;;27.42;25.52;;;;;;;24.59;100.00;100668.16;5008944;28;20107;-78
2021/08/07 07:55:04;;;;;;;26.58;24.48;;;;;;;24.76;100.00;100680.34;5002657;28;20123;-78
2021/08/07 07:57:31;;;;;;;26.60;24.80;;;;;;;25.23;100.00;100670.16;5004209;28;20054;-78
2021/08/07 07:59:58;;;;;;;26.63;25.00;;;;;;;26.09;100.00;100661.09;5003784;28;20120;-78
2021/08/07 08:02:24;;;;;;;25.95;24.23;;;;;;;25.94;100.00;100667.72;5005646;28;20065;-79
2021/08/07 08:04:53;;;;;;;24.90;23.10;;;;;;;25.90;100.00;100664.81;5002841;28;20475;-79
2021/08/07 08:07:19;;;;;;;23.75;22.15;;;;;;;25.48;100.00;100661.44;4998063;28;20463;-78
2021/08/07 08:09:46;;;;;;;24.75;22.85;;;;;;;25.38;100.00;100669.81;5006281;28;20054;-78
2021/08/07 08:12:13;;;;;;;25.33;23.73;;;;;;;26.02;100.00;100666.94;5000301;28;20096;-80
2021/08/07 08:14:40;;;;;;;24.83;23.10;;;;;;;26.20;100.00;100665.97;5005456;28;20054;-80
2021/08/07 08:17:07;;;;;;;26.23;24.08;;;;;;;26.10;100.00;100660.78;5002847;28;20046;-78
2021/08/07 08:19:36;;;;;;;26.20;24.50;;;;;;;26.24;100.00;100666.13;5003292;28;20408;-78
2021/08/07 08:22:05;;;;;;;26.48;24.58;;;;;;;26.49;100.00;100660.03;4998173;28;20104;-81
2021/08/07 08:24:32;;;;;;;26.90;24.90;;;;;;;26.64;100.00;100669.69;5002206;28;20125;-78
2021/08/07 08:26:58;;;;;;;25.17;23.40;;;;;;;26.78;100.00;100663.31;5005666;28;20446;-79
2021/08/07 08:29:25;;;;;;;25.00;23.40;;;;;;;26.83;100.00;100669.44;5005088;28;20050;-79
2021/08/07 08:31:52;;;;;;;23.30;21.70;;;;;;;26.92;100.00;100664.00;5004222;28;20051;-80
2021/08/07 08:34:19;;;;;;;24.92;23.33;;;;;;;26.70;100.00;100665.72;5003543;28;20042;-79
2021/08/07 08:36:45;;;;;;;23.98;22.27;;;;;;;27.03;100.00;100669.97;4997099;28;20128;-78
2021/08/07 08:39:13;;;;;;;25.15;23.45;;;;;;;27.18;100.00;100667.63;5005355;28;20455;-78
2021/08/07 08:41:40;;;;;;;25.67;23.98;;;;;;;27.28;100.00;100665.72;5004108;28;20123;-78
2021/08/07 08:44:07;;;;;;;26.25;24.33;;;;;;;27.40;100.00;100666.66;5003323;28;20061;-78
2021/08/07 08:46:36;;;;;;;25.50;23.73;;;;;;;27.55;99.51;100670.03;5002906;28;20061;-79
2021/08/07 08:49:04;;;;;;;24.80;23.02;;;;;;;27.78;100.00;100665.25;5005485;28;20494;-80
2021/08/07 08:51:31;;;;;;;25.63;23.80;;;;;;;27.66;100.00;100665.06;4994868;28;20109;-78
2021/08/07 08:53:58;;;;;;;25.90;24.13;;;;;;;27.84;100.00;100666.69;5000985;28;20050;-80
2021/08/07 08:56:30;;;;;;;25.23;23.27;;;;;;;27.83;97.64;100665.88;5007333;28;20379;-78
2021/08/07 08:58:57;;;;;;;24.13;22.42;;;;;;;27.93;94.56;100670.22;5001712;28;20077;-79
2021/08/07 09:01:24;;;;;;;26.60;24.60;;;;;;;27.32;93.23;100672.13;5002869;28;20050;-78
2021/08/07 09:03:51;;;;;;;25.05;23.35;;;;;;;28.04;81.62;100668.72;5003092;28;20054;-80
2021/08/07 09:06:17;;;;;;;26.42;24.63;;;;;;;27.74;88.95;100666.97;5000270;28;20054;-78
2021/08/07 09:09:09;;;;;;;24.35;22.75;;;;;;;28.29;81.73;100667.06;5002502;28;20046;-79
2021/08/07 09:11:38;;;;;;;24.05;22.45;;;;;;;28.30;86.65;100656.94;4984854;28;20554;-78
2021/08/07 09:14:23;;;;;;;23.83;22.13;;;;;;;28.25;83.55;100657.91;5003627;28;20046;-77
2021/08/07 09:17:06;;;;;;;24.70;23.00;;;;;;;28.67;87.22;100658.09;5002590;28;20072;-79
2021/08/07 09:19:47;;;;;;;;;;;;;;;28.26;86.00;100655.97;5006858;28;20046;-80
2021/08/07 09:22:17;;;;;;;26.17;24.38;;;;;;;28.28;83.04;100651.78;4994869;28;20358;-81
2021/08/07 09:25:02;;;;;;;25.52;23.63;;;;;;;28.17;94.95;100650.56;5002789;28;20042;-80
2021/08/07 09:27:32;;;;;;;25.13;23.17;;;;;;;28.00;89.48;100651.41;5002854;28;20058;-80
2021/08/07 09:29:59;;;;;;;26.02;23.92;;;;;;;28.23;75.67;100657.44;4998754;28;20053;-77
2021/08/07 09:32:25;;;;;;;24.77;23.02;;;;;;;28.93;92.01;100662.63;5004413;28;20421;-80
2021/08/07 09:35:14;;;;;;;23.20;21.50;;;;;;;29.26;78.37;100656.44;5002234;28;20046;-78
2021/08/07 09:37:41;;;;;;;23.90;22.10;;;;;;;28.75;77.34;100659.97;4996809;28;20058;-79
2021/08/07 09:40:09;;;;;;;23.52;21.70;;;;;;;28.79;73.87;100662.84;5001790;28;20379;-78
2021/08/07 09:42:52;;;;;;;23.60;21.90;;;;;;;29.30;67.78;100651.94;5003183;28;20061;-79
2021/08/07 09:45:23;;;;;;;24.77;23.08;;;;;;;29.90;66.76;100653.34;5002870;28;20507;-78
2021/08/07 09:47:58;;;;;;;24.80;23.05;;;;;;;29.09;63.58;100660.13;5002982;28;20467;-80
2021/08/07 09:50:27;;;;;;;23.35;21.75;;;;;;;29.93;60.27;100658.16;4999606;28;20061;-78
2021/08/07 09:52:54;;;;;;;22.10;20.60;;;;;;;29.99;53.72;100648.59;4998200;28;20050;-78
2021/08/07 09:55:21;;;;;;;23.35;21.83;;;;;;;29.26;52.93;100649.06;5002987;28;20376;-78
2021/08/07 09:58:00;;;;;;;22.63;21.10;;;;;;;29.99;58.51;100648.59;5002195;28;20112;-80
2021/08/07 10:00:34;;;;;;;25.08;23.58;;;;;;;28.61;54.93;100645.75;5003059;28;20149;-80
2021/08/07 10:03:15;;;;;;;23.63;22.13;;;;;;;29.18;59.14;100645.25;5001178;28;20108;-78
2021/08/07 10:05:42;;;;;;;25.10;23.15;;;;;;;28.74;54.71;100649.38;4997326;28;20133;-79
2021/08/07 10:08:10;;;;;;;25.35;23.65;;;;;;;29.19;67.36;100649.59;5002218;28;20057;-80
2021/08/07 10:10:37;;;;;;;25.92;24.13;;;;;;;30.42;57.53;100638.28;5003601;28;20049;-79
2021/08/07 10:13:06;;;;;;;24.55;22.85;;;;;;;29.30;50.51;100647.25;5000625;28;20123;-78
2021/08/07 10:15:33;;;;;;;24.90;23.10;;;;;;;30.10;49.56;100643.44;5002499;28;20057;-79
2021/08/07 10:18:00;;;;;;;24.65;22.85;;;;;;;29.10;55.06;100653.50;5002771;28;20061;-78
2021/08/07 10:20:27;;;;;;;23.88;22.10;;;;;;;30.23;53.70;100647.03;4999049;28;20446;-78
2021/08/07 10:22:55;;;;;;;25.10;23.17;;;;;;;31.63;44.33;100647.44;5002700;28;20054;-79
2021/08/07 10:25:23;;;;;;;26.75;25.05;;;;;;;31.21;49.31;100653.28;5001483;28;20485;-78
2021/08/07 10:27:56;;;;;;;25.33;23.83;;;;;;;31.69;47.66;100645.25;5002144;28;20071;-78
2021/08/07 10:30:25;;;;;;;25.27;23.88;;;;;;;31.28;50.75;100644.47;5000251;28;20057;-79
2021/08/07 10:32:55;;;;;;;23.13;21.55;;;;;;;30.09;66.26;100650.88;5003160;28;20057;-77
2021/08/07 10:35:24;;;;;;;24.90;23.30;;;;;;;30.21;60.63;100654.81;5005253;28;20554;-78
2021/08/07 10:37:51;;;;;;;25.20;23.40;;;;;;;30.07;78.61;100655.88;5005142;28;20133;-78
2021/08/07 10:40:18;;;;;;;24.25;22.45;;;;;;;29.61;82.26;100652.31;4997795;28;20454;-79
2021/08/07 10:42:46;;;;;;;24.38;22.63;;;;;;;30.99;63.34;100653.81;5001220;28;20054;-78
2021/08/07 10:45:13;;;;;;;24.95;23.25;;;;;;;30.82;50.64;100657.59;5001335;28;20069;-78
2021/08/07 10:47:43;;;;;;;23.25;21.75;;;;;;;31.06;44.54;100662.25;5002926;28;20133;-80
2021/08/07 10:50:34;;;;;;;25.15;23.45;;;;;;;30.51;45.01;100655.41;5003554;28;20057;-78
2021/08/07 10:53:02;;;;;;;24.40;22.75;;;;;;;31.29;41.78;100661.72;5000699;28;20129;-78
2021/08/07 10:55:46;;;;;;;25.63;23.70;;;;;;;31.30;49.32;100649.63;5005831;28;20053;-79
2021/08/07 10:58:40;;;;;;;26.70;24.90;;;;;;;32.23;44.83;100650.22;4997283;28;20061;-79
2021/08/07 11:01:29;;;;;;;26.88;25.15;;;;;;;31.01;47.17;100655.03;4997480;28;20054;-78
2021/08/07 11:04:11;;;;;;;24.33;22.63;;;;;;;31.80;41.01;100643.59;5003216;28;20046;-80
2021/08/07 11:06:49;;;;;;;24.48;22.83;;;;;;;32.13;46.38;100643.28;4993243;28;20535;-79
2021/08/07 11:09:17;;;;;;;26.30;24.60;;;;;;;31.32;48.81;100645.38;5001850;28;20054;-79
2021/08/07 11:11:45;;;;;;;26.20;24.50;;;;;;;30.44;43.55;100652.41;5001649;28;20124;-78